TimeCDT,TemperatureF,Dew PointF,Humidity,Sea Level PressureIn,VisibilityMPH,Wind Direction,Wind SpeedMPH,Gust SpeedMPH,PrecipitationIn,Events,Conditions,WindDirDegrees,DateUTC
12:53 AM,68.0,64.0,87,30.20,10.0,North,3.5,-,N/A,,Clear,360,2012-10-13 05:53:00
1:53 AM,66.9,63.0,87,30.19,10.0,Calm,Calm,-,N/A,,Clear,0,2012-10-13 06:53:00
2:53 AM,68.0,62.1,81,30.18,10.0,North,3.5,-,N/A,,Clear,10,2012-10-13 07:53:00
3:53 AM,68.0,62.1,81,30.19,10.0,North,4.6,-,N/A,,Clear,10,2012-10-13 08:53:00
4:53 AM,66.9,61.0,81,30.19,10.0,NNE,4.6,-,N/A,,Clear,20,2012-10-13 09:53:00
5:53 AM,69.1,62.1,78,30.21,10.0,ENE,4.6,-,N/A,,Clear,70,2012-10-13 10:53:00
6:53 AM,68.0,62.1,81,30.23,10.0,East,3.5,-,N/A,,Clear,80,2012-10-13 11:53:00
7:53 AM,70.0,63.0,78,30.24,10.0,East,3.5,-,N/A,,Clear,90,2012-10-13 12:53:00
8:53 AM,73.0,63.0,71,30.24,10.0,East,5.8,-,N/A,,Clear,90,2012-10-13 13:53:00
9:53 AM,77.0,63.0,62,30.25,10.0,ESE,9.2,-,N/A,,Clear,110,2012-10-13 14:53:00
10:53 AM,80.1,64.0,58,30.25,10.0,East,6.9,-,N/A,,Clear,80,2012-10-13 15:53:00
11:53 AM,82.0,64.0,54,30.23,10.0,SE,6.9,-,N/A,,Clear,130,2012-10-13 16:53:00
12:53 PM,82.9,64.9,54,30.21,10.0,SE,9.2,-,N/A,,Clear,140,2012-10-13 17:53:00
1:53 PM,84.0,66.9,56,30.18,10.0,SSE,11.5,-,N/A,,Clear,160,2012-10-13 18:53:00
2:53 PM,82.9,66.0,56,30.16,10.0,SSE,12.7,-,N/A,,Clear,150,2012-10-13 19:53:00
3:53 PM,82.0,64.9,56,30.15,10.0,SE,9.2,-,N/A,,Clear,140,2012-10-13 20:53:00
4:53 PM,81.0,66.9,62,30.15,10.0,SSE,8.1,-,N/A,,Clear,150,2012-10-13 21:53:00
5:53 PM,78.1,70.0,76,30.15,10.0,SSE,8.1,-,N/A,,Clear,160,2012-10-13 22:53:00
6:53 PM,77.0,69.8,78,30.15,10.0,SSE,6.9,-,N/A,,Clear,150,2012-10-13 23:53:00
7:53 PM,75.9,69.1,79,30.16,10.0,SSE,8.1,-,N/A,,Partly Cloudy,150,2012-10-14 00:53:00
8:53 PM,77.0,69.8,78,30.17,10.0,SE,6.9,-,N/A,,Scattered Clouds,140,2012-10-14 01:53:00
9:53 PM,75.9,66.0,71,30.18,10.0,SSE,5.8,-,N/A,,Mostly Cloudy,150,2012-10-14 02:53:00
10:53 PM,77.0,66.2,69,30.16,10.0,SE,5.8,-,N/A,,Overcast,140,2012-10-14 03:53:00